createdAt,value
2023-02-17T00:00:57.050Z,101748.75
2023-02-17T00:03:24.306Z,101730.78
2023-02-17T00:05:51.519Z,101739.66
2023-02-17T00:08:18.351Z,101743.31
2023-02-17T00:10:45.146Z,101745.06
2023-02-17T00:13:11.560Z,101746.69
2023-02-17T00:15:39.036Z,101746.88
2023-02-17T00:18:05.493Z,101743.31
2023-02-17T00:20:32.000Z,101738.91
2023-02-17T00:22:58.360Z,101739.88
2023-02-17T00:25:24.955Z,101729.16
2023-02-17T00:27:51.312Z,101728.47
2023-02-17T00:30:17.882Z,101723.91
2023-02-17T00:32:44.275Z,101731.03
2023-02-17T00:35:10.688Z,101719.47
2023-02-17T00:37:37.175Z,101719.50
2023-02-17T00:40:03.860Z,101706.88
2023-02-17T00:42:30.289Z,101697.88
2023-02-17T00:44:56.655Z,101701.44
2023-02-17T00:47:23.167Z,101694.38
2023-02-17T00:49:49.580Z,101698.63
2023-02-17T00:52:15.973Z,101693.16
2023-02-17T00:54:42.466Z,101698.38
2023-02-17T00:57:08.922Z,101696.50
2023-02-17T00:59:35.266Z,101706.44
2023-02-17T01:02:01.813Z,101705.50
2023-02-17T01:04:28.377Z,101706.44
2023-02-17T01:06:54.885Z,101718.88
2023-02-17T01:09:21.272Z,101720.72
2023-02-17T01:11:47.703Z,101715.34
2023-02-17T01:14:14.694Z,101710.69
2023-02-17T01:16:46.369Z,101719.75
2023-02-17T01:19:16.164Z,101708.13
2023-02-17T01:21:42.698Z,101708.13
2023-02-17T01:24:09.816Z,101713.41
2023-02-17T01:26:37.128Z,101713.44
2023-02-17T01:29:04.719Z,101700.84
2023-02-17T01:31:31.442Z,101696.59
2023-02-17T01:33:59.766Z,101674.41
2023-02-17T01:36:26.616Z,101673.44
2023-02-17T01:38:53.606Z,101673.59
2023-02-17T01:41:22.332Z,101672.78
2023-02-17T01:44:18.303Z,101672.69
2023-02-17T01:46:47.664Z,101666.34
2023-02-17T01:49:34.851Z,101660.88
2023-02-17T01:52:08.632Z,101654.63
2023-02-17T01:54:53.042Z,101658.25
2023-02-17T01:57:23.661Z,101662.63
2023-02-17T01:59:50.246Z,101668.94
2023-02-17T02:02:17.438Z,101652.88
2023-02-17T02:04:47.873Z,101648.56
2023-02-17T02:07:20.404Z,101653.06
2023-02-17T02:09:52.033Z,101653.25
2023-02-17T02:12:24.385Z,101640.88
2023-02-17T02:14:52.757Z,101655.03
2023-02-17T02:17:44.389Z,101645.28
2023-02-17T02:20:27.173Z,101638.78
2023-02-17T02:23:13.630Z,101621.06
2023-02-17T02:26:17.330Z,101629.97
2023-02-17T02:29:07.814Z,101635.34
2023-02-17T02:32:08.987Z,101629.91
2023-02-17T02:34:43.338Z,101622.84
2023-02-17T02:37:18.082Z,101625.47
2023-02-17T02:39:47.845Z,101629.97
2023-02-17T02:42:21.809Z,101622.03
2023-02-17T02:44:48.571Z,101612.19
2023-02-17T02:47:42.938Z,101611.88
2023-02-17T02:50:12.625Z,101598.63
2023-02-17T02:52:55.520Z,101600.50
2023-02-17T02:55:47.890Z,101586.31
2023-02-17T02:58:33.534Z,101584.63
2023-02-17T03:01:14.266Z,101581.88
2023-02-17T03:03:54.222Z,101571.22
2023-02-17T03:06:29.363Z,101567.63
2023-02-17T03:09:02.765Z,101567.53
2023-02-17T03:11:32.434Z,101559.41
2023-02-17T03:14:15.570Z,101567.47
2023-02-17T03:16:43.420Z,101571.72
2023-02-17T03:19:11.555Z,101574.53
2023-02-17T03:21:45.633Z,101584.22
2023-02-17T03:24:12.088Z,101584.22
2023-02-17T03:26:38.492Z,101585.13
2023-02-17T03:29:05.010Z,101584.38
2023-02-17T03:31:31.845Z,101569.03
2023-02-17T03:33:59.281Z,101580.66
2023-02-17T03:36:26.152Z,101574.41
2023-02-17T03:38:52.642Z,101577.03
2023-02-17T03:41:19.036Z,101570.66
2023-02-17T03:43:45.399Z,101575.22
2023-02-17T03:46:13.541Z,101568.00
2023-02-17T03:48:40.301Z,101567.09
2023-02-17T03:51:16.530Z,101572.53
2023-02-17T03:53:43.603Z,101569.03
2023-02-17T03:56:10.954Z,101560.00
2023-02-17T03:58:38.341Z,101551.06
2023-02-17T04:01:05.924Z,101557.47
2023-02-17T04:03:33.358Z,101545.75
2023-02-17T04:06:00.016Z,101532.16
2023-02-17T04:08:26.468Z,101510.69
2023-02-17T04:10:58.549Z,101529.94
2023-02-17T04:13:25.433Z,101503.09
2023-02-17T04:15:52.853Z,101485.22
2023-02-17T04:18:19.953Z,101485.50
2023-02-17T04:20:49.209Z,101513.28
2023-02-17T04:23:16.328Z,101503.97
2023-02-17T04:25:43.407Z,101503.09
2023-02-17T04:28:10.568Z,101504.88
2023-02-17T04:30:37.065Z,101533.38
2023-02-17T04:33:04.125Z,101550.34
2023-02-17T04:35:30.571Z,101537.75
2023-02-17T04:37:56.970Z,101531.50
2023-02-17T04:40:23.456Z,101545.75
2023-02-17T04:42:49.836Z,101556.25
2023-02-17T04:45:16.314Z,101565.53
2023-02-17T04:47:42.757Z,101562.91
2023-02-17T04:50:10.455Z,101549.91
2023-02-17T04:52:37.235Z,101534.72
2023-02-17T04:55:05.052Z,101536.28
2023-02-17T04:57:31.861Z,101520.31
2023-02-17T04:59:58.223Z,101518.34
2023-02-17T05:02:26.852Z,101521.19
2023-02-17T05:04:53.913Z,101517.44
2023-02-17T05:07:20.830Z,101502.03
2023-02-17T05:09:47.271Z,101501.41
2023-02-17T05:12:13.973Z,101489.63
2023-02-17T05:14:40.442Z,101493.13
2023-02-17T05:17:06.852Z,101489.38
2023-02-17T05:19:33.344Z,101477.56
2023-02-17T05:21:59.854Z,101500.13
2023-02-17T05:24:26.268Z,101500.84
2023-02-17T05:26:52.646Z,101509.59
2023-02-17T05:29:19.223Z,101519.22
2023-02-17T05:31:45.751Z,101496.06
2023-02-17T05:34:12.636Z,101494.19
2023-02-17T05:36:39.075Z,101505.06
2023-02-17T05:39:05.572Z,101513.81
2023-02-17T05:41:32.094Z,101499.56
2023-02-17T05:43:58.512Z,101480.72
2023-02-17T05:46:24.914Z,101476.94
2023-02-17T05:48:51.425Z,101474.06
2023-02-17T05:51:17.825Z,101461.56
2023-02-17T05:53:44.849Z,101479.34
2023-02-17T05:56:11.333Z,101460.47
2023-02-17T05:58:37.960Z,101463.19
2023-02-17T06:01:11.488Z,101470.28
2023-02-17T06:03:38.407Z,101454.13
2023-02-17T06:06:06.310Z,101482.09
2023-02-17T06:08:33.514Z,101469.28
2023-02-17T06:11:00.048Z,101466.91
2023-02-17T06:13:26.634Z,101480.34
2023-02-17T06:15:53.249Z,101471.47
2023-02-17T06:18:19.852Z,101473.94
2023-02-17T06:20:46.442Z,101467.69
2023-02-17T06:23:12.920Z,101461.28
2023-02-17T06:25:39.302Z,101460.41
2023-02-17T06:28:05.965Z,101464.78
2023-02-17T06:30:32.558Z,101472.56
2023-02-17T06:32:59.315Z,101470.53
2023-02-17T06:35:26.337Z,101470.25
2023-02-17T06:37:53.117Z,101455.00
2023-02-17T06:40:19.869Z,101469.44
2023-02-17T06:42:46.336Z,101454.00
2023-02-17T06:45:12.971Z,101456.91
2023-02-17T06:47:39.391Z,101446.84
2023-02-17T06:50:06.641Z,101441.34
2023-02-17T06:52:33.084Z,101442.44
2023-02-17T06:54:59.540Z,101440.84
2023-02-17T06:57:26.029Z,101441.72
2023-02-17T06:59:52.476Z,101419.06
2023-02-17T07:02:19.012Z,101416.19
2023-02-17T07:04:45.541Z,101399.22
2023-02-17T07:07:12.051Z,101403.19
2023-02-17T07:09:39.370Z,101410.25
2023-02-17T07:12:06.379Z,101422.13
2023-02-17T07:14:34.560Z,101433.75
2023-02-17T07:17:01.628Z,101434.63
2023-02-17T07:19:28.232Z,101436.25
2023-02-17T07:21:54.723Z,101447.03
2023-02-17T07:24:21.395Z,101460.25
2023-02-17T07:26:48.004Z,101454.16
2023-02-17T07:29:14.574Z,101452.84
2023-02-17T07:31:41.056Z,101472.19
2023-02-17T07:34:07.553Z,101464.47
2023-02-17T07:36:34.041Z,101462.75
2023-02-17T07:39:00.524Z,101462.59
2023-02-17T07:41:30.693Z,101468.72
2023-02-17T07:43:58.246Z,101458.44
2023-02-17T07:46:25.355Z,101457.06
2023-02-17T07:48:51.968Z,101457.94
2023-02-17T07:51:21.045Z,101442.50
2023-02-17T07:53:48.407Z,101452.47
2023-02-17T07:56:16.109Z,101451.84
2023-02-17T07:58:43.945Z,101470.41
2023-02-17T08:01:17.608Z,101476.66
2023-02-17T08:03:44.862Z,101472.25
2023-02-17T08:06:13.429Z,101475.44
2023-02-17T08:08:58.544Z,101461.78
2023-02-17T08:11:45.151Z,101453.94
2023-02-17T08:14:13.263Z,101484.75
2023-02-17T08:16:40.034Z,101482.78
2023-02-17T08:19:07.602Z,101458.47
2023-02-17T08:21:34.314Z,101463.63
2023-02-17T08:24:00.701Z,101443.72
2023-02-17T08:26:27.788Z,101450.22
2023-02-17T08:28:54.984Z,101465.44
2023-02-17T08:31:28.078Z,101449.09
2023-02-17T08:33:55.871Z,101448.16
2023-02-17T08:36:26.987Z,101427.22
2023-02-17T08:38:54.113Z,101441.50
2023-02-17T08:41:32.987Z,101441.44
2023-02-17T08:44:01.821Z,101438.91
2023-02-17T08:46:28.917Z,101428.94
2023-02-17T08:48:56.437Z,101419.31
2023-02-17T08:51:26.009Z,101439.66
2023-02-17T08:53:55.068Z,101416.56
2023-02-17T08:56:22.922Z,101437.22
2023-02-17T08:58:49.381Z,101440.56
2023-02-17T09:01:18.955Z,101451.22
2023-02-17T09:03:46.676Z,101463.72
2023-02-17T09:06:13.319Z,101452.94
2023-02-17T09:08:40.977Z,101468.41
2023-02-17T09:11:09.672Z,101445.97
2023-02-17T09:13:36.930Z,101450.63
2023-02-17T09:16:04.085Z,101461.84
2023-02-17T09:18:30.669Z,101445.81
2023-02-17T09:20:58.467Z,101448.53
2023-02-17T09:23:24.970Z,101463.44
2023-02-17T09:26:01.321Z,101487.44
2023-02-17T09:28:27.737Z,101481.84
2023-02-17T09:30:54.328Z,101478.97
2023-02-17T09:33:20.903Z,101467.78
2023-02-17T09:35:47.346Z,101478.72
2023-02-17T09:38:13.701Z,101472.47
2023-02-17T09:40:48.838Z,101493.56
2023-02-17T09:43:18.826Z,101484.84
2023-02-17T09:45:51.154Z,101490.66
2023-02-17T09:48:21.810Z,101475.50
2023-02-17T09:51:00.143Z,101482.34
2023-02-17T09:53:48.502Z,101472.59
2023-02-17T09:56:20.364Z,101497.00
2023-02-17T09:58:51.972Z,101502.00
2023-02-17T10:01:22.426Z,101488.59
2023-02-17T10:04:14.329Z,101496.75
2023-02-17T10:06:47.738Z,101501.22
2023-02-17T10:09:24.357Z,101504.69
2023-02-17T10:12:00.874Z,101541.03
2023-02-17T10:14:51.410Z,101536.13
2023-02-17T10:17:37.650Z,101526.94
2023-02-17T10:20:06.780Z,101584.06
2023-02-17T10:22:34.477Z,101575.31
2023-02-17T10:25:02.883Z,101566.44
2023-02-17T10:27:45.349Z,101572.09
2023-02-17T10:33:20.953Z,101600.25
2023-02-17T10:35:58.942Z,101581.38
2023-02-17T10:38:53.913Z,101591.78
2023-02-17T10:41:26.751Z,101600.03
2023-02-17T10:43:54.519Z,101597.09
2023-02-17T10:46:27.813Z,101617.28
2023-02-17T10:48:57.034Z,101600.41
2023-02-17T10:51:27.659Z,101614.59
2023-02-17T10:54:13.078Z,101605.88
2023-02-17T10:56:44.631Z,101610.84
2023-02-17T10:59:32.123Z,101610.13
2023-02-17T11:02:13.645Z,101610.81
2023-02-17T11:04:44.946Z,101603.88
2023-02-17T11:07:13.349Z,101600.56
2023-02-17T11:09:46.566Z,101596.28
2023-02-17T11:12:32.622Z,101581.78
2023-02-17T11:14:59.774Z,101580.06
2023-02-17T11:17:30.958Z,101566.81
2023-02-17T11:20:06.643Z,101575.22
2023-02-17T11:22:42.445Z,101580.00
2023-02-17T11:25:24.952Z,101566.19
2023-02-17T11:28:03.244Z,101569.03
2023-02-17T11:30:31.806Z,101587.53
2023-02-17T11:32:58.653Z,101569.81
2023-02-17T11:35:27.221Z,101582.06
2023-02-17T11:38:10.124Z,101585.56
2023-02-17T11:40:36.768Z,101581.50
2023-02-17T11:43:05.180Z,101568.94
2023-02-17T11:45:43.726Z,101571.59
2023-02-17T11:48:27.630Z,101565.06
2023-02-17T11:51:05.537Z,101595.25
2023-02-17T11:53:43.855Z,101595.69
2023-02-17T11:56:16.898Z,101611.44
2023-02-17T11:59:08.119Z,101610.00
2023-02-17T12:01:43.249Z,101626.69
2023-02-17T12:04:26.280Z,101608.19
2023-02-17T12:07:04.962Z,101613.09
2023-02-17T12:09:46.751Z,101624.06
2023-02-17T12:12:26.402Z,101626.03
2023-02-17T12:14:55.437Z,101617.31
2023-02-17T12:17:30.965Z,101622.63
2023-02-17T12:20:19.200Z,101657.19
2023-02-17T12:23:07.412Z,101635.59
2023-02-17T12:25:40.598Z,101627.81
2023-02-17T12:28:29.821Z,101642.28
2023-02-17T12:31:09.973Z,101628.97
2023-02-17T12:34:15.358Z,101627.19
2023-02-17T12:36:43.123Z,101625.41
2023-02-17T12:39:25.410Z,101644.00
2023-02-17T12:41:58.796Z,101650.31
2023-02-17T12:44:30.952Z,101660.06
2023-02-17T12:47:02.728Z,101670.69
2023-02-17T12:49:44.056Z,101668.72
2023-02-17T12:52:28.458Z,101643.38
2023-02-17T12:55:02.019Z,101646.06
2023-02-17T12:57:47.291Z,101670.22
2023-02-17T13:00:23.617Z,101686.91
2023-02-17T13:02:50.095Z,101657.13
2023-02-17T13:05:26.225Z,101689.28
2023-02-17T13:08:01.627Z,101663.69
2023-02-17T13:10:32.687Z,101645.19
2023-02-17T13:13:10.311Z,101671.31
2023-02-17T13:15:40.263Z,101669.09
2023-02-17T13:18:31.478Z,101663.38
2023-02-17T13:21:01.943Z,101664.50
2023-02-17T13:23:31.145Z,101658.00
2023-02-17T13:26:34.995Z,101669.13
2023-02-17T13:29:21.485Z,101659.25
2023-02-17T13:31:54.109Z,101666.44
2023-02-17T13:34:30.023Z,101669.44
2023-02-17T13:36:57.330Z,101681.69
2023-02-17T13:39:27.052Z,101687.56
2023-02-17T13:41:59.165Z,101679.13
2023-02-17T13:44:34.331Z,101681.91
2023-02-17T13:47:06.827Z,101667.91
2023-02-17T13:49:35.141Z,101695.50
2023-02-17T13:52:09.799Z,101686.56
2023-02-17T13:54:36.356Z,101703.75
2023-02-17T13:57:02.951Z,101706.41
2023-02-17T13:59:29.425Z,101702.94
2023-02-17T14:01:55.840Z,101698.75
2023-02-17T14:04:27.335Z,101685.38
2023-02-17T14:06:56.794Z,101691.88
2023-02-17T14:09:26.784Z,101705.56
2023-02-17T14:11:55.449Z,101711.22
2023-02-17T14:14:24.566Z,101714.91
2023-02-17T14:17:06.615Z,101708.34
2023-02-17T14:19:48.239Z,101717.38
2023-02-17T14:22:28.913Z,101713.38
2023-02-17T14:25:01.288Z,101726.59
2023-02-17T14:27:27.766Z,101738.75
2023-02-17T14:29:54.216Z,101735.88
2023-02-17T14:32:40.238Z,101736.03
2023-02-17T14:35:22.994Z,101741.22
2023-02-17T14:37:50.352Z,101747.66
2023-02-17T14:40:20.577Z,101753.63
2023-02-17T14:42:47.306Z,101744.78
2023-02-17T14:45:15.216Z,101751.56
2023-02-17T14:47:42.786Z,101745.06
2023-02-17T14:50:10.055Z,101751.09
2023-02-17T14:52:46.006Z,101754.78
2023-02-17T14:55:18.584Z,101753.41
2023-02-17T14:57:45.299Z,101770.69
2023-02-17T15:00:14.122Z,101774.31
2023-02-17T15:02:40.656Z,101792.31
2023-02-17T15:05:07.860Z,101799.44
2023-02-17T15:07:35.043Z,101799.81
2023-02-17T15:10:01.640Z,101796.91
2023-02-17T15:12:28.501Z,101792.56
2023-02-17T15:14:55.122Z,101802.16
2023-02-17T15:17:21.561Z,101806.88
2023-02-17T15:19:49.223Z,101809.66
2023-02-17T15:22:15.642Z,101805.41
2023-02-17T15:24:42.251Z,101800.75
2023-02-17T15:27:13.835Z,101829.94
2023-02-17T15:29:40.329Z,101835.19
2023-02-17T15:32:14.876Z,101844.09
2023-02-17T15:34:41.435Z,101842.00
2023-02-17T15:37:10.084Z,101859.59
2023-02-17T15:39:36.527Z,101860.47
2023-02-17T15:42:11.463Z,101866.31
2023-02-17T15:44:49.977Z,101874.69
2023-02-17T15:47:19.604Z,101878.72
2023-02-17T15:49:46.438Z,101893.53
2023-02-17T15:52:13.835Z,101892.44
2023-02-17T15:54:42.570Z,101907.66
2023-02-17T15:57:20.972Z,101911.56
2023-02-17T15:59:47.719Z,101907.06
2023-02-17T16:02:25.104Z,101914.34
2023-02-17T16:04:51.686Z,101924.09
2023-02-17T16:07:18.080Z,101926.81
2023-02-17T16:09:44.542Z,101916.97
2023-02-17T16:12:26.364Z,101917.09
2023-02-17T16:14:53.052Z,101917.25
2023-02-17T16:17:19.635Z,101932.78
2023-02-17T16:19:46.039Z,101926.75
2023-02-17T16:22:13.088Z,101927.56
2023-02-17T16:24:39.598Z,101936.63
2023-02-17T16:27:09.432Z,101942.03
2023-02-17T16:29:35.933Z,101951.19
2023-02-17T16:32:03.183Z,101968.06
2023-02-17T16:34:32.338Z,101970.88
2023-02-17T16:37:02.891Z,101974.91
2023-02-17T16:39:29.914Z,101978.13
2023-02-17T16:41:56.399Z,101980.25
2023-02-17T16:44:23.449Z,101984.19
2023-02-17T16:46:54.507Z,101989.56
2023-02-17T16:49:25.920Z,101986.81
2023-02-17T16:51:52.854Z,101980.63
2023-02-17T16:54:19.698Z,101990.53
2023-02-17T16:56:49.415Z,101976.34
2023-02-17T16:59:18.604Z,101991.66
2023-02-17T17:01:46.178Z,101992.59
2023-02-17T17:04:12.664Z,102000.00
2023-02-17T17:06:43.627Z,102010.78
2023-02-17T17:09:16.603Z,102015.09
2023-02-17T17:11:43.176Z,102015.94
2023-02-17T17:14:09.675Z,102018.78
2023-02-17T17:16:36.579Z,102030.69
2023-02-17T17:19:03.961Z,102029.00
2023-02-17T17:21:30.952Z,102037.34
2023-02-17T17:23:57.487Z,102038.25
2023-02-17T17:26:49.994Z,102045.94
2023-02-17T17:29:17.855Z,102045.25
2023-02-17T17:31:45.083Z,102040.16
2023-02-17T17:34:11.767Z,102036.78
2023-02-17T17:36:40.929Z,102045.97
2023-02-17T17:39:13.285Z,102049.47
2023-02-17T17:41:39.904Z,102048.06
2023-02-17T17:44:06.370Z,102054.44
2023-02-17T17:46:35.426Z,102059.97
2023-02-17T17:49:04.531Z,102072.47
2023-02-17T17:51:32.839Z,102085.84
2023-02-17T17:53:59.393Z,102077.72
2023-02-17T17:56:28.788Z,102083.06
2023-02-17T17:58:56.431Z,102088.44
2023-02-17T18:01:23.358Z,102092.88
2023-02-17T18:03:50.283Z,102094.75
2023-02-17T18:06:29.868Z,102102.88
2023-02-17T18:09:00.749Z,102101.91
2023-02-17T18:11:27.897Z,102114.47
2023-02-17T18:13:58.347Z,102109.03
2023-02-17T18:16:26.361Z,102099.97
2023-02-17T18:18:53.385Z,102098.25
2023-02-17T18:21:19.950Z,102109.91
2023-02-17T18:23:46.430Z,102114.41
2023-02-17T18:26:13.189Z,102112.88
2023-02-17T18:28:40.443Z,102122.00
2023-02-17T18:31:09.208Z,102117.00
2023-02-17T18:33:36.424Z,102127.91
2023-02-17T18:36:13.768Z,102137.78
2023-02-17T18:38:40.326Z,102137.09
2023-02-17T18:41:07.366Z,102138.88
2023-02-17T18:43:33.959Z,102142.34
2023-02-17T18:46:00.654Z,102145.78
2023-02-17T18:48:27.095Z,102150.47
2023-02-17T18:50:53.574Z,102148.69
2023-02-17T18:53:20.055Z,102146.69
2023-02-17T18:55:46.437Z,102153.03
2023-02-17T18:58:13.049Z,102147.78
2023-02-17T19:00:39.471Z,102155.00
2023-02-17T19:03:05.931Z,102154.31
2023-02-17T19:05:32.362Z,102151.91
2023-02-17T19:07:58.838Z,102149.31
2023-02-17T19:10:25.253Z,102156.44
2023-02-17T19:12:51.693Z,102158.44
2023-02-17T19:15:20.766Z,102164.91
2023-02-17T19:17:48.688Z,102159.75
2023-02-17T19:20:17.022Z,102163.44
2023-02-17T19:22:43.523Z,102157.06
2023-02-17T19:25:10.140Z,102157.03
2023-02-17T19:27:39.310Z,102159.72
2023-02-17T19:30:07.568Z,102154.13
2023-02-17T19:32:34.058Z,102157.78
2023-02-17T19:35:00.792Z,102164.91
2023-02-17T19:37:27.452Z,102164.84
2023-02-17T19:39:54.315Z,102166.50
2023-02-17T19:42:20.741Z,102168.41
2023-02-17T19:44:47.799Z,102180.06
2023-02-17T19:47:14.423Z,102169.44
2023-02-17T19:49:40.865Z,102164.13
2023-02-17T19:52:07.813Z,102170.38
2023-02-17T19:54:34.267Z,102169.69
2023-02-17T19:57:00.705Z,102167.94
2023-02-17T19:59:27.237Z,102154.50
2023-02-17T20:01:53.706Z,102165.28
2023-02-17T20:04:20.389Z,102172.31
2023-02-17T20:06:48.122Z,102168.72
2023-02-17T20:09:18.186Z,102174.19
2023-02-17T20:11:46.257Z,102179.56
2023-02-17T20:14:12.760Z,102183.09
2023-02-17T20:16:39.794Z,102175.16
2023-02-17T20:19:07.232Z,102167.13
2023-02-17T20:21:38.198Z,102173.34
2023-02-17T20:24:04.827Z,102175.13
2023-02-17T20:26:34.344Z,102177.91
2023-02-17T20:29:01.908Z,102181.53
2023-02-17T20:31:28.897Z,102174.41
2023-02-17T20:33:55.600Z,102178.28
2023-02-17T20:36:22.285Z,102180.38
2023-02-17T20:38:49.849Z,102185.56
2023-02-17T20:41:19.351Z,102181.16
2023-02-17T20:43:46.027Z,102190.13
2023-02-17T20:46:19.451Z,102193.63
2023-02-17T20:48:46.568Z,102193.34
2023-02-17T20:51:13.089Z,102188.84
2023-02-17T20:53:39.479Z,102190.78
2023-02-17T20:56:14.363Z,102191.72
2023-02-17T20:58:40.782Z,102187.19
2023-02-17T21:01:07.581Z,102194.22
2023-02-17T21:03:34.048Z,102185.28
2023-02-17T21:06:03.439Z,102188.69
2023-02-17T21:08:30.135Z,102184.94
2023-02-17T21:10:56.588Z,102195.50
2023-02-17T21:13:23.059Z,102187.03
2023-02-17T21:15:50.015Z,102193.97
2023-02-17T21:18:16.459Z,102197.28
2023-02-17T21:20:42.851Z,102196.41
2023-02-17T21:23:09.232Z,102196.28
2023-02-17T21:25:35.711Z,102206.09
2023-02-17T21:28:02.119Z,102206.84
2023-02-17T21:30:28.572Z,102209.50
2023-02-17T21:32:55.736Z,102202.41
2023-02-17T21:35:22.202Z,102203.19
2023-02-17T21:37:48.696Z,102199.53
2023-02-17T21:40:15.184Z,102196.63
2023-02-17T21:43:00.103Z,102204.81
2023-02-17T21:45:26.666Z,102205.81
2023-02-17T21:47:53.150Z,102197.75
2023-02-17T21:50:19.793Z,102193.09
2023-02-17T21:52:46.221Z,102191.34
2023-02-17T21:55:13.233Z,102198.59
2023-02-17T21:57:39.591Z,102198.47
2023-02-17T22:00:06.686Z,102202.94
2023-02-17T22:02:33.051Z,102189.59
2023-02-17T22:04:59.480Z,102186.22
2023-02-17T22:07:25.916Z,102176.53
2023-02-17T22:09:52.489Z,102174.84
2023-02-17T22:12:19.150Z,102177.38
2023-02-17T22:14:45.936Z,102173.94
2023-02-17T22:17:12.402Z,102167.84
2023-02-17T22:19:38.825Z,102169.94
2023-02-17T22:22:05.319Z,102178.88
2023-02-17T22:24:31.785Z,102175.28
2023-02-17T22:26:58.266Z,102178.94
2023-02-17T22:29:24.676Z,102170.72
2023-02-17T22:31:55.649Z,102168.28
2023-02-17T22:34:23.731Z,102171.03
2023-02-17T22:36:50.123Z,102178.81
2023-02-17T22:39:16.533Z,102179.47
2023-02-17T22:41:42.924Z,102171.41
2023-02-17T22:44:09.380Z,102169.69
2023-02-17T22:46:35.939Z,102171.25
2023-02-17T22:49:02.466Z,102162.25
2023-02-17T22:51:32.514Z,102152.38
2023-02-17T22:54:00.592Z,102160.06
2023-02-17T22:56:27.500Z,102163.53
2023-02-17T22:58:57.828Z,102158.91
2023-02-17T23:01:25.267Z,102157.91
2023-02-17T23:03:54.445Z,102157.00
2023-02-17T23:06:27.524Z,102154.09
2023-02-17T23:08:54.889Z,102146.66
2023-02-17T23:11:44.069Z,102154.78
2023-02-17T23:14:11.647Z,102148.47
2023-02-17T23:16:38.372Z,102141.31
2023-02-17T23:19:10.178Z,102134.72
2023-02-17T23:21:37.741Z,102138.16
2023-02-17T23:24:04.833Z,102130.16
2023-02-17T23:26:31.367Z,102118.38
2023-02-17T23:28:57.786Z,102115.56
2023-02-17T23:31:24.392Z,102106.78
2023-02-17T23:33:50.971Z,102116.47
2023-02-17T23:36:17.500Z,102106.47
2023-02-17T23:38:43.869Z,102115.28
2023-02-17T23:41:10.601Z,102120.41
2023-02-17T23:43:37.021Z,102132.19
2023-02-17T23:46:03.581Z,102127.66
2023-02-17T23:48:30.054Z,102116.00
2023-02-17T23:51:01.086Z,102115.19
2023-02-17T23:53:28.456Z,102116.69
2023-02-17T23:56:18.144Z,102113.09
2023-02-17T23:58:44.988Z,102122.03
